createdAt,value
2017-01-17T00:00:44.047Z,0
2017-01-17T00:01:57.611Z,0
2017-01-17T00:03:11.036Z,0
2017-01-17T00:04:24.521Z,0
2017-01-17T00:05:37.952Z,0
2017-01-17T00:06:53.079Z,0
2017-01-17T00:08:06.707Z,0
2017-01-17T00:09:20.150Z,0
2017-01-17T00:10:35.789Z,0
2017-01-17T00:11:49.272Z,0
2017-01-17T00:13:03.107Z,0
2017-01-17T00:14:16.587Z,0
2017-01-17T00:15:30.004Z,0
2017-01-17T00:16:43.440Z,0
2017-01-17T00:17:56.981Z,0
2017-01-17T00:19:10.691Z,0
2017-01-17T00:20:24.135Z,0
2017-01-17T00:21:37.544Z,0
2017-01-17T00:22:51.454Z,0
2017-01-17T00:24:05.192Z,0
2017-01-17T00:25:19.124Z,0
2017-01-17T00:26:32.590Z,0
2017-01-17T00:27:46.048Z,0
2017-01-17T00:28:59.998Z,0
2017-01-17T00:30:13.418Z,0
2017-01-17T00:31:27.138Z,0
2017-01-17T00:32:40.644Z,0
2017-01-17T00:33:54.192Z,0
2017-01-17T00:35:08.249Z,0
2017-01-17T00:36:21.736Z,0
2017-01-17T00:37:35.470Z,0
2017-01-17T00:38:48.946Z,0
2017-01-17T00:40:02.463Z,0
2017-01-17T00:41:15.924Z,0
2017-01-17T00:42:29.390Z,0
2017-01-17T00:43:43.084Z,0
2017-01-17T00:45:26.307Z,0
2017-01-17T00:46:39.774Z,0
2017-01-17T00:47:53.203Z,0
2017-01-17T00:49:07.312Z,0
2017-01-17T00:50:20.837Z,0
2017-01-17T00:51:34.310Z,0
2017-01-17T00:52:47.730Z,0
2017-01-17T00:54:01.193Z,0
2017-01-17T00:55:14.962Z,0
2017-01-17T00:56:28.526Z,0
2017-01-17T00:57:42.179Z,0
2017-01-17T00:58:55.632Z,0
2017-01-17T01:00:09.035Z,0
2017-01-17T01:01:22.854Z,0
2017-01-17T01:02:36.717Z,0
2017-01-17T01:03:50.155Z,0
2017-01-17T01:05:03.617Z,0
2017-01-17T01:06:17.054Z,0
2017-01-17T01:07:31.302Z,0
2017-01-17T01:08:44.747Z,0
2017-01-17T01:09:58.170Z,0
2017-01-17T01:11:17.861Z,0
2017-01-17T01:12:31.425Z,0
2017-01-17T01:13:45.190Z,0
2017-01-17T01:14:58.675Z,0
2017-01-17T01:16:12.122Z,0
2017-01-17T01:17:25.638Z,0
2017-01-17T01:18:39.070Z,0
2017-01-17T01:19:52.775Z,0
2017-01-17T01:21:06.221Z,0
2017-01-17T01:22:19.762Z,0
2017-01-17T01:23:33.630Z,0
2017-01-17T01:24:47.094Z,0
2017-01-17T01:26:00.801Z,0
2017-01-17T01:27:16.519Z,0
2017-01-17T01:28:29.949Z,0
2017-01-17T01:29:43.804Z,0
2017-01-17T01:30:57.246Z,0
2017-01-17T01:32:10.910Z,0
2017-01-17T01:33:24.866Z,0
2017-01-17T01:34:38.316Z,0
2017-01-17T01:35:51.790Z,0
2017-01-17T01:37:05.210Z,0
2017-01-17T01:38:19.010Z,0
2017-01-17T01:39:32.458Z,0
2017-01-17T01:40:45.891Z,0
2017-01-17T01:41:59.329Z,0
2017-01-17T01:43:13.172Z,0
2017-01-17T01:44:27.038Z,0
2017-01-17T01:45:40.477Z,0
2017-01-17T01:46:53.945Z,0
2017-01-17T01:48:07.879Z,0
2017-01-17T01:49:21.952Z,0
2017-01-17T01:50:35.644Z,0
2017-01-17T01:51:49.083Z,0
2017-01-17T01:53:02.501Z,0
2017-01-17T01:54:16.018Z,0
2017-01-17T01:55:29.461Z,0
2017-01-17T01:56:43.318Z,0
2017-01-17T01:57:56.740Z,0
2017-01-17T01:59:10.204Z,0
2017-01-17T02:00:23.700Z,0
2017-01-17T02:01:37.179Z,0
2017-01-17T02:02:50.930Z,0
2017-01-17T02:04:04.389Z,0
2017-01-17T02:05:17.922Z,0
2017-01-17T02:06:31.372Z,0
2017-01-17T02:07:44.761Z,0
2017-01-17T02:08:58.486Z,0
2017-01-17T02:10:12.105Z,0
2017-01-17T02:11:25.521Z,0
2017-01-17T02:12:38.973Z,0
2017-01-17T02:13:52.413Z,0
2017-01-17T02:15:06.193Z,0
2017-01-17T02:16:19.777Z,0
2017-01-17T02:17:33.223Z,0
2017-01-17T02:18:46.634Z,0
2017-01-17T02:20:00.106Z,0
2017-01-17T02:21:13.950Z,0
2017-01-17T02:22:27.426Z,0
2017-01-17T02:23:40.867Z,0
2017-01-17T02:24:54.381Z,0
2017-01-17T02:26:07.915Z,0
2017-01-17T02:27:21.640Z,0
2017-01-17T02:28:35.043Z,0
2017-01-17T02:29:48.455Z,0
2017-01-17T02:31:01.885Z,0
2017-01-17T02:32:16.617Z,0
2017-01-17T02:33:30.358Z,0
2017-01-17T02:34:43.793Z,0
2017-01-17T02:35:57.269Z,0
2017-01-17T02:37:10.746Z,0
2017-01-17T02:38:24.154Z,0
2017-01-17T02:39:37.838Z,0
2017-01-17T02:40:51.250Z,0
2017-01-17T02:42:04.786Z,0
2017-01-17T02:43:20.361Z,0
2017-01-17T02:44:33.824Z,0
2017-01-17T02:45:47.552Z,0
2017-01-17T02:47:00.982Z,0
2017-01-17T02:48:14.934Z,0
2017-01-17T02:49:28.793Z,0
2017-01-17T02:50:42.268Z,0
2017-01-17T02:51:56.021Z,0
2017-01-17T02:53:09.530Z,0
2017-01-17T02:54:22.943Z,0
2017-01-17T02:55:36.572Z,0
2017-01-17T02:56:50.451Z,0
2017-01-17T02:58:04.275Z,0
2017-01-17T02:59:36.867Z,0
2017-01-17T03:00:50.307Z,0
2017-01-17T03:02:03.735Z,0
2017-01-17T03:03:17.595Z,0
2017-01-17T03:04:31.044Z,0
2017-01-17T03:05:44.463Z,0
2017-01-17T03:06:57.933Z,0
2017-01-17T03:08:11.470Z,0
2017-01-17T03:09:25.187Z,0
2017-01-17T03:10:38.590Z,0
2017-01-17T03:11:51.998Z,0
2017-01-17T03:13:05.429Z,0
2017-01-17T03:14:18.946Z,0
2017-01-17T03:15:32.682Z,0
2017-01-17T03:16:46.133Z,0
2017-01-17T03:17:59.596Z,0
2017-01-17T03:19:13.146Z,0
2017-01-17T03:20:26.579Z,0
2017-01-17T03:21:40.299Z,0
2017-01-17T03:22:54.135Z,0
2017-01-17T03:24:07.641Z,0
2017-01-17T03:25:21.054Z,0
2017-01-17T03:26:34.486Z,0
2017-01-17T03:27:48.175Z,0
2017-01-17T03:29:01.616Z,0
2017-01-17T03:30:16.312Z,0
2017-01-17T03:31:30.161Z,0
2017-01-17T03:32:43.755Z,0
2017-01-17T03:33:57.577Z,0
2017-01-17T03:35:11.104Z,0
2017-01-17T03:36:24.937Z,0
2017-01-17T03:37:44.620Z,0
2017-01-17T03:38:58.433Z,0
2017-01-17T03:40:12.246Z,0
2017-01-17T03:41:25.701Z,0
2017-01-17T03:42:39.138Z,0
2017-01-17T03:43:52.541Z,0
2017-01-17T03:45:06.862Z,0
2017-01-17T03:46:20.534Z,0
2017-01-17T03:47:33.924Z,0
2017-01-17T03:48:47.353Z,0
2017-01-17T03:50:00.751Z,0
2017-01-17T03:51:14.328Z,0
2017-01-17T03:52:28.053Z,0
2017-01-17T03:53:41.501Z,0
2017-01-17T03:54:54.946Z,0
2017-01-17T03:56:09.696Z,0
2017-01-17T03:57:23.147Z,0
2017-01-17T03:58:36.962Z,0
2017-01-17T03:59:52.589Z,0
2017-01-17T04:01:06.162Z,0
2017-01-17T04:02:20.030Z,0
2017-01-17T04:03:33.480Z,0
2017-01-17T04:04:47.179Z,0
2017-01-17T04:06:00.696Z,0
2017-01-17T04:07:14.180Z,0
2017-01-17T04:08:28.079Z,0
2017-01-17T04:09:41.891Z,0
2017-01-17T04:10:55.624Z,0
2017-01-17T04:12:09.188Z,0
2017-01-17T04:13:22.610Z,0
2017-01-17T04:14:36.058Z,0
2017-01-17T04:15:49.511Z,0
2017-01-17T04:17:03.784Z,0
2017-01-17T04:18:17.346Z,0
2017-01-17T04:19:30.771Z,0
2017-01-17T04:20:44.207Z,0
2017-01-17T04:21:57.651Z,0
2017-01-17T04:23:11.500Z,0
2017-01-17T04:24:25.036Z,0
2017-01-17T04:25:38.505Z,0
2017-01-17T04:26:51.929Z,0
2017-01-17T04:28:05.442Z,0
2017-01-17T04:29:19.640Z,0
2017-01-17T04:30:33.153Z,0
2017-01-17T04:31:46.662Z,0
2017-01-17T04:33:06.974Z,0
2017-01-17T04:34:20.375Z,0
2017-01-17T04:35:34.081Z,0
2017-01-17T04:36:53.819Z,0
2017-01-17T04:38:07.445Z,0
2017-01-17T04:39:20.949Z,0
2017-01-17T04:40:34.363Z,0
2017-01-17T04:41:48.080Z,0
2017-01-17T04:43:01.603Z,0
2017-01-17T04:44:15.030Z,0
2017-01-17T04:45:28.454Z,0
2017-01-17T04:46:41.902Z,0
2017-01-17T04:47:55.614Z,0
2017-01-17T04:49:09.542Z,0
2017-01-17T04:50:22.959Z,0
2017-01-17T04:51:36.426Z,0
2017-01-17T04:52:50.274Z,0
2017-01-17T04:54:04.110Z,0
2017-01-17T04:55:17.556Z,0
2017-01-17T04:56:31.016Z,0
2017-01-17T04:57:44.508Z,0
2017-01-17T04:58:57.900Z,0
2017-01-17T05:00:12.901Z,0
2017-01-17T05:01:26.747Z,0
2017-01-17T05:02:40.192Z,0
2017-01-17T05:03:53.629Z,0
2017-01-17T05:05:07.641Z,0
2017-01-17T05:06:21.351Z,0
2017-01-17T05:07:34.783Z,0
2017-01-17T05:08:48.231Z,0
2017-01-17T05:10:03.014Z,0
2017-01-17T05:11:16.438Z,0
2017-01-17T05:12:30.164Z,0
2017-01-17T05:13:43.680Z,0
2017-01-17T05:14:57.157Z,0
2017-01-17T05:16:14.090Z,0
2017-01-17T05:17:27.533Z,0
2017-01-17T05:18:41.263Z,0
2017-01-17T05:19:54.684Z,0
2017-01-17T05:21:08.254Z,0
2017-01-17T05:22:22.279Z,0
2017-01-17T05:23:35.702Z,0
2017-01-17T05:24:49.415Z,0
2017-01-17T05:26:03.522Z,0
2017-01-17T05:27:16.951Z,0
2017-01-17T05:28:30.388Z,0
2017-01-17T05:29:43.851Z,0
2017-01-17T05:30:57.975Z,0
2017-01-17T05:32:11.521Z,0
2017-01-17T05:33:24.942Z,0
2017-01-17T05:34:38.368Z,0
2017-01-17T05:35:51.810Z,0
2017-01-17T05:37:05.595Z,0
2017-01-17T05:38:19.047Z,0
2017-01-17T05:39:32.470Z,0
2017-01-17T05:40:45.913Z,0
2017-01-17T05:41:59.624Z,0
2017-01-17T05:43:13.755Z,0
2017-01-17T05:44:27.189Z,0
2017-01-17T05:45:41.040Z,0
2017-01-17T05:46:54.483Z,0
2017-01-17T05:48:09.213Z,0
2017-01-17T05:49:22.937Z,0
2017-01-17T05:50:36.376Z,0
2017-01-17T05:51:50.628Z,0
2017-01-17T05:53:05.360Z,0
2017-01-17T05:54:18.766Z,0
2017-01-17T05:55:33.326Z,0
2017-01-17T05:56:46.801Z,0
2017-01-17T05:58:00.365Z,0
2017-01-17T05:59:13.941Z,0
2017-01-17T06:00:27.774Z,0
2017-01-17T06:01:41.569Z,0
2017-01-17T06:02:55.917Z,0
2017-01-17T06:04:09.398Z,0
2017-01-17T06:05:22.917Z,0
2017-01-17T06:06:36.346Z,0
2017-01-17T06:07:50.868Z,0
2017-01-17T06:09:05.589Z,0
2017-01-17T06:10:19.098Z,0
2017-01-17T06:11:32.685Z,0
2017-01-17T06:12:46.129Z,0
2017-01-17T06:13:59.974Z,0
2017-01-17T06:15:13.478Z,0
2017-01-17T06:16:26.968Z,0
2017-01-17T06:17:40.457Z,0
2017-01-17T06:18:54.119Z,0
2017-01-17T06:20:08.473Z,0
2017-01-17T06:21:22.528Z,0
2017-01-17T06:22:36.015Z,0
2017-01-17T06:23:49.477Z,0
2017-01-17T06:25:03.118Z,0
2017-01-17T06:26:17.023Z,0
2017-01-17T06:27:30.537Z,0
2017-01-17T06:28:43.976Z,0
2017-01-17T06:29:57.604Z,0
2017-01-17T06:31:11.128Z,0
2017-01-17T06:32:27.107Z,0
2017-01-17T06:33:40.671Z,0
2017-01-17T06:34:54.178Z,0
2017-01-17T06:36:07.614Z,0
2017-01-17T06:37:21.055Z,0
2017-01-17T06:38:34.845Z,0
2017-01-17T06:39:48.376Z,0
2017-01-17T06:41:03.155Z,0
2017-01-17T06:42:16.676Z,0
2017-01-17T06:43:30.219Z,0
2017-01-17T06:44:44.542Z,0
2017-01-17T06:45:59.426Z,0
2017-01-17T06:47:12.989Z,0
2017-01-17T06:48:26.526Z,0
2017-01-17T06:49:39.917Z,0
2017-01-17T06:50:53.866Z,4
2017-01-17T06:52:07.980Z,4
2017-01-17T06:53:21.522Z,4
2017-01-17T06:54:34.957Z,0
2017-01-17T06:55:48.393Z,4
2017-01-17T06:57:02.224Z,4
2017-01-17T06:58:16.535Z,4
2017-01-17T06:59:30.344Z,8
2017-01-17T07:00:44.196Z,8
2017-01-17T07:01:57.722Z,8
2017-01-17T07:03:11.431Z,8
2017-01-17T07:04:24.898Z,12
2017-01-17T07:05:38.300Z,12
2017-01-17T07:06:51.876Z,16
2017-01-17T07:08:05.698Z,20
2017-01-17T07:09:20.345Z,20
2017-01-17T07:10:38.329Z,28
2017-01-17T07:11:51.880Z,28
2017-01-17T07:13:05.308Z,36
2017-01-17T07:14:18.776Z,40
2017-01-17T07:15:32.523Z,40
2017-01-17T07:16:46.401Z,44
2017-01-17T07:17:59.922Z,52
2017-01-17T07:19:13.812Z,52
2017-01-17T07:20:27.265Z,60
2017-01-17T07:21:41.027Z,60
2017-01-17T07:22:54.779Z,64
2017-01-17T07:24:08.272Z,68
2017-01-17T07:25:21.728Z,72
2017-01-17T07:26:35.228Z,72
2017-01-17T07:27:49.029Z,84
2017-01-17T07:29:02.502Z,88
2017-01-17T07:30:15.968Z,92
2017-01-17T07:31:29.393Z,104
2017-01-17T07:32:43.749Z,120
2017-01-17T07:33:57.611Z,128
2017-01-17T07:35:11.512Z,144
2017-01-17T07:36:25.600Z,144
2017-01-17T07:37:39.136Z,148
2017-01-17T07:38:53.084Z,156
2017-01-17T07:40:06.808Z,176
2017-01-17T07:41:20.655Z,176
2017-01-17T07:42:34.145Z,192
2017-01-17T07:43:47.743Z,204
2017-01-17T07:45:01.218Z,208
2017-01-17T07:46:14.993Z,220
2017-01-17T07:47:38.753Z,224
2017-01-17T07:48:55.053Z,224
2017-01-17T07:50:08.675Z,232
2017-01-17T07:51:22.881Z,264
2017-01-17T07:52:36.805Z,276
2017-01-17T07:53:50.726Z,336
2017-01-17T07:55:04.305Z,368
2017-01-17T07:56:17.795Z,380
2017-01-17T07:57:44.306Z,388
2017-01-17T07:58:57.835Z,420
2017-01-17T08:00:11.449Z,440
2017-01-17T08:01:25.127Z,444
2017-01-17T08:02:38.593Z,488
2017-01-17T08:03:52.609Z,540
2017-01-17T08:05:06.053Z,548
2017-01-17T08:06:19.503Z,548
2017-01-17T08:07:33.024Z,596
2017-01-17T08:08:46.476Z,660
2017-01-17T08:10:00.445Z,696
2017-01-17T08:11:13.879Z,716
2017-01-17T08:12:27.511Z,748
2017-01-17T08:13:41.863Z,768
2017-01-17T08:14:56.131Z,780
2017-01-17T08:16:10.245Z,792
2017-01-17T08:17:24.779Z,852
2017-01-17T08:18:38.928Z,988
2017-01-17T08:19:55.063Z,1080
2017-01-17T08:21:09.274Z,1036
2017-01-17T08:22:23.502Z,1080
2017-01-17T08:23:36.995Z,1128
2017-01-17T08:24:50.609Z,1200
2017-01-17T08:26:04.151Z,1244
2017-01-17T08:27:18.443Z,1140
2017-01-17T08:28:32.448Z,1164
2017-01-17T08:29:45.917Z,1216
2017-01-17T08:30:59.540Z,1148
2017-01-17T08:32:13.034Z,1068
2017-01-17T08:33:26.532Z,1100
2017-01-17T08:34:40.264Z,1088
2017-01-17T08:35:53.838Z,1052
2017-01-17T08:37:07.382Z,1136
2017-01-17T08:38:20.906Z,1300
2017-01-17T08:39:34.421Z,1352
2017-01-17T08:40:49.459Z,1372
2017-01-17T08:42:03.362Z,1412
2017-01-17T08:43:16.826Z,1460
2017-01-17T08:44:30.316Z,1432
2017-01-17T08:45:43.829Z,1412
2017-01-17T08:46:57.753Z,1380
2017-01-17T08:48:11.203Z,1316
2017-01-17T08:49:24.750Z,1156
2017-01-17T08:50:38.196Z,1112
2017-01-17T08:51:51.833Z,1096
2017-01-17T08:53:05.812Z,1088
2017-01-17T08:54:19.868Z,1084
2017-01-17T08:55:34.240Z,1108
2017-01-17T08:56:47.893Z,1120
2017-01-17T08:58:01.293Z,1136
2017-01-17T08:59:15.077Z,1168
2017-01-17T09:00:28.517Z,1360
2017-01-17T09:01:41.963Z,1364
2017-01-17T09:02:56.608Z,1376
2017-01-17T09:04:10.100Z,1268
2017-01-17T09:05:26.178Z,1344
2017-01-17T09:06:41.333Z,1408
2017-01-17T09:07:58.727Z,1524
2017-01-17T09:09:18.509Z,1508
2017-01-17T09:10:38.996Z,1620
2017-01-17T09:11:58.795Z,1824
2017-01-17T09:13:18.212Z,1856
2017-01-17T09:14:34.462Z,1888
2017-01-17T09:15:48.767Z,1772
2017-01-17T09:17:06.050Z,1712
2017-01-17T09:18:20.022Z,1720
2017-01-17T09:19:33.896Z,1788
2017-01-17T09:20:47.633Z,1656
2017-01-17T09:22:04.353Z,1864
2017-01-17T09:23:18.851Z,1892
2017-01-17T09:24:32.894Z,1816
2017-01-17T09:25:48.079Z,1760
2017-01-17T09:27:04.899Z,1400
2017-01-17T09:28:18.830Z,1288
2017-01-17T09:29:33.719Z,1272
2017-01-17T09:30:48.087Z,1232
2017-01-17T09:32:04.164Z,1240
2017-01-17T09:33:19.678Z,1244
2017-01-17T09:34:39.755Z,1312
2017-01-17T09:35:56.660Z,1492
2017-01-17T09:37:12.978Z,1228
2017-01-17T09:38:29.865Z,1244
2017-01-17T09:39:44.177Z,1264
2017-01-17T09:40:59.176Z,1256
2017-01-17T09:42:14.901Z,1268
2017-01-17T09:43:30.111Z,1272
2017-01-17T09:44:45.019Z,1276
2017-01-17T09:45:59.253Z,1284
2017-01-17T09:47:13.693Z,1296
2017-01-17T09:48:28.259Z,1316
2017-01-17T09:49:42.230Z,1420
2017-01-17T09:50:55.742Z,1364
2017-01-17T09:52:10.678Z,1560
2017-01-17T09:53:24.146Z,1512
2017-01-17T09:54:39.573Z,1364
2017-01-17T09:55:54.414Z,1400
2017-01-17T09:57:08.557Z,1536
2017-01-17T09:58:23.135Z,1552
2017-01-17T09:59:38.007Z,1664
2017-01-17T10:00:51.447Z,1384
2017-01-17T10:02:05.178Z,1484
2017-01-17T10:03:19.222Z,1612
2017-01-17T10:04:33.057Z,1572
2017-01-17T10:05:46.485Z,1508
2017-01-17T10:06:59.920Z,1716
2017-01-17T10:08:13.708Z,1728
2017-01-17T10:09:27.105Z,1756
2017-01-17T10:10:40.990Z,1760
2017-01-17T10:11:54.433Z,1688
2017-01-17T10:13:07.923Z,1700
2017-01-17T10:14:22.580Z,1648
2017-01-17T10:15:36.760Z,1764
2017-01-17T10:16:51.329Z,1816
2017-01-17T10:18:04.778Z,1956
2017-01-17T10:19:19.500Z,2048
2017-01-17T10:20:33.495Z,2132
2017-01-17T10:21:46.977Z,2164
2017-01-17T10:23:03.811Z,2128
2017-01-17T10:24:19.452Z,2068
2017-01-17T10:25:32.930Z,2012
2017-01-17T10:26:46.987Z,1992
2017-01-17T10:28:00.935Z,2060
2017-01-17T10:29:14.914Z,2208
2017-01-17T10:30:28.331Z,2360
2017-01-17T10:31:42.318Z,2392
2017-01-17T10:32:57.351Z,2356
2017-01-17T10:34:11.268Z,2360
2017-01-17T10:35:25.800Z,2304
2017-01-17T10:36:39.279Z,2168
2017-01-17T10:37:52.763Z,2044
2017-01-17T10:39:06.673Z,1900
2017-01-17T10:40:21.429Z,1852
2017-01-17T10:41:35.318Z,1928
2017-01-17T10:42:48.748Z,2060
2017-01-17T10:44:02.223Z,2028
2017-01-17T10:45:16.075Z,1856
2017-01-17T10:46:29.528Z,1852
2017-01-17T10:47:43.413Z,1816
2017-01-17T10:48:56.897Z,1788
2017-01-17T10:50:10.385Z,1760
2017-01-17T10:51:25.101Z,1732
2017-01-17T10:52:38.572Z,1676
2017-01-17T10:53:51.984Z,1668
2017-01-17T10:55:05.452Z,1660
2017-01-17T10:56:18.994Z,1644
2017-01-17T10:57:32.749Z,1656
2017-01-17T10:58:46.254Z,1640
2017-01-17T10:59:59.752Z,1636
2017-01-17T11:01:13.432Z,1624
2017-01-17T11:02:26.862Z,1616
2017-01-17T11:03:40.638Z,1612
2017-01-17T11:04:54.145Z,1604
2017-01-17T11:06:07.708Z,1600
2017-01-17T11:07:21.254Z,1600
2017-01-17T11:08:34.688Z,1600
2017-01-17T11:09:49.127Z,1596
2017-01-17T11:11:02.605Z,1596
2017-01-17T11:12:17.333Z,1592
2017-01-17T11:13:31.218Z,1592
2017-01-17T11:14:44.685Z,1596
2017-01-17T11:15:58.450Z,1592
2017-01-17T11:17:12.334Z,1588
2017-01-17T11:18:25.795Z,1588
2017-01-17T11:19:39.327Z,1588
2017-01-17T11:20:52.777Z,1596
2017-01-17T11:22:06.472Z,1600
2017-01-17T11:23:21.157Z,1596
2017-01-17T11:24:35.485Z,1596
2017-01-17T11:25:48.981Z,1600
2017-01-17T11:27:02.534Z,1604
2017-01-17T11:28:17.475Z,1608
2017-01-17T11:29:31.370Z,1604
2017-01-17T11:30:45.019Z,1600
2017-01-17T11:31:58.469Z,1604
2017-01-17T11:33:11.973Z,1604
2017-01-17T11:34:26.086Z,1600
2017-01-17T11:35:39.513Z,1600
2017-01-17T11:36:52.944Z,1604
2017-01-17T11:38:06.789Z,1604
2017-01-17T11:39:22.435Z,1600
2017-01-17T11:40:36.198Z,1600
2017-01-17T11:41:50.027Z,1600
2017-01-17T11:43:03.465Z,1600
2017-01-17T11:44:16.898Z,1604
2017-01-17T11:45:30.428Z,1632
2017-01-17T11:46:44.165Z,1612
2017-01-17T11:47:57.627Z,1612
2017-01-17T11:49:11.102Z,1616
2017-01-17T11:50:24.705Z,1624
2017-01-17T11:51:39.411Z,1620
2017-01-17T11:52:53.139Z,1628
2017-01-17T11:54:06.570Z,1628
2017-01-17T11:55:20.010Z,1616
2017-01-17T11:56:33.964Z,1624
2017-01-17T11:57:47.455Z,1624
2017-01-17T11:59:01.205Z,1624
2017-01-17T12:00:14.653Z,1620
2017-01-17T12:01:29.773Z,1604
2017-01-17T12:02:43.268Z,1612
2017-01-17T12:03:56.748Z,1608
2017-01-17T12:05:11.360Z,1608
2017-01-17T12:06:24.802Z,1628
2017-01-17T12:07:38.276Z,1572
2017-01-17T12:08:51.831Z,1620
2017-01-17T12:10:05.275Z,1628
2017-01-17T12:11:18.990Z,1632
2017-01-17T12:12:32.504Z,1632
2017-01-17T12:13:45.956Z,1624
2017-01-17T12:14:59.383Z,1620
2017-01-17T12:16:12.922Z,1620
2017-01-17T12:17:26.732Z,1624
2017-01-17T12:18:40.540Z,1628
2017-01-17T12:19:53.989Z,1640
2017-01-17T12:21:07.409Z,1656
2017-01-17T12:22:21.205Z,1644
2017-01-17T12:23:35.416Z,1624
2017-01-17T12:24:48.816Z,1624
2017-01-17T12:26:02.287Z,1628
2017-01-17T12:27:15.768Z,1632
2017-01-17T12:28:29.248Z,1628
2017-01-17T12:29:43.228Z,1628
2017-01-17T12:30:56.711Z,1596
2017-01-17T12:32:10.606Z,1612
2017-01-17T12:33:24.113Z,1632
2017-01-17T12:34:37.547Z,1640
2017-01-17T12:35:51.426Z,1656
2017-01-17T12:37:04.863Z,1676
2017-01-17T12:38:18.335Z,1708
2017-01-17T12:39:31.814Z,1736
2017-01-17T12:40:45.285Z,1732
2017-01-17T12:41:59.215Z,1624
2017-01-17T12:43:13.070Z,1560
2017-01-17T12:44:26.628Z,1720
2017-01-17T12:45:40.117Z,1744
2017-01-17T12:46:53.594Z,1796
2017-01-17T12:48:07.344Z,1804
2017-01-17T12:49:20.807Z,1740
2017-01-17T12:50:34.243Z,1720
2017-01-17T12:51:48.149Z,1748
2017-01-17T12:53:01.591Z,1768
2017-01-17T12:54:15.348Z,1720
2017-01-17T12:55:31.171Z,1660
2017-01-17T12:56:44.635Z,1828
2017-01-17T12:57:58.096Z,1888
2017-01-17T12:59:11.572Z,1856
2017-01-17T13:00:25.376Z,1876
2017-01-17T13:01:38.839Z,1884
2017-01-17T13:02:52.319Z,1912
2017-01-17T13:04:06.581Z,1940
2017-01-17T13:05:21.567Z,2044
2017-01-17T13:06:35.295Z,2268
2017-01-17T13:07:48.747Z,2556
2017-01-17T13:09:02.200Z,2564
2017-01-17T13:10:15.678Z,2184
2017-01-17T13:11:29.618Z,2100
2017-01-17T13:12:43.356Z,2164
2017-01-17T13:13:56.815Z,2176
2017-01-17T13:15:10.246Z,2204
2017-01-17T13:16:24.194Z,2292
2017-01-17T13:17:37.632Z,2348
2017-01-17T13:18:51.387Z,2280
2017-01-17T13:20:07.866Z,2364
2017-01-17T13:21:21.499Z,2536
2017-01-17T13:22:47.678Z,2640
2017-01-17T13:24:01.192Z,2252
2017-01-17T13:25:15.023Z,2096
2017-01-17T13:26:28.552Z,2124
2017-01-17T13:27:42.470Z,2084
2017-01-17T13:28:56.013Z,2040
2017-01-17T13:30:09.872Z,1952
2017-01-17T13:31:24.861Z,1984
2017-01-17T13:32:38.309Z,1888
2017-01-17T13:33:51.803Z,1872
2017-01-17T13:35:05.698Z,1936
2017-01-17T13:36:19.176Z,1880
2017-01-17T13:37:33.013Z,1808
2017-01-17T13:38:46.489Z,1844
2017-01-17T13:40:00.360Z,1812
2017-01-17T13:41:14.239Z,1780
2017-01-17T13:42:27.746Z,1796
2017-01-17T13:43:41.522Z,1860
2017-01-17T13:44:55.013Z,1928
2017-01-17T13:46:08.682Z,1936
2017-01-17T13:47:22.255Z,1932
2017-01-17T13:48:35.724Z,1724
2017-01-17T13:49:49.481Z,1716
2017-01-17T13:51:02.968Z,1784
2017-01-17T13:52:16.695Z,1856
2017-01-17T13:53:30.212Z,1912
2017-01-17T13:54:44.061Z,1768
2017-01-17T13:55:57.881Z,1660
2017-01-17T13:57:11.380Z,1644
2017-01-17T13:58:24.914Z,1736
2017-01-17T13:59:38.790Z,1780
2017-01-17T14:00:52.351Z,1676
2017-01-17T14:02:06.163Z,1560
2017-01-17T14:03:19.645Z,1480
2017-01-17T14:04:33.171Z,1448
2017-01-17T14:05:46.582Z,1428
2017-01-17T14:07:00.061Z,1296
2017-01-17T14:08:13.857Z,1300
2017-01-17T14:09:27.395Z,1416
2017-01-17T14:10:40.858Z,1424
2017-01-17T14:11:56.533Z,1416
2017-01-17T14:13:10.090Z,1424
2017-01-17T14:14:24.382Z,1408
2017-01-17T14:15:38.331Z,1408
2017-01-17T14:16:52.210Z,1352
2017-01-17T14:18:05.649Z,1276
2017-01-17T14:19:19.481Z,1300
2017-01-17T14:20:33.224Z,1392
2017-01-17T14:21:47.128Z,1380
2017-01-17T14:23:00.557Z,1372
2017-01-17T14:24:14.499Z,1360
2017-01-17T14:25:28.283Z,1348
2017-01-17T14:26:42.013Z,1344
2017-01-17T14:27:55.926Z,1332
2017-01-17T14:29:09.379Z,1324
2017-01-17T14:30:22.906Z,1312
2017-01-17T14:31:36.354Z,1304
2017-01-17T14:32:50.130Z,1292
2017-01-17T14:34:03.587Z,1284
2017-01-17T14:35:17.111Z,1272
2017-01-17T14:36:30.575Z,1260
2017-01-17T14:37:44.012Z,1248
2017-01-17T14:38:57.790Z,1240
2017-01-17T14:40:11.286Z,1220
2017-01-17T14:41:24.792Z,1208
2017-01-17T14:42:38.275Z,1196
2017-01-17T14:43:51.692Z,1184
2017-01-17T14:45:05.486Z,1172
2017-01-17T14:46:19.392Z,1156
2017-01-17T14:47:32.878Z,1144
2017-01-17T14:48:46.320Z,1128
2017-01-17T14:49:59.819Z,1116
2017-01-17T14:51:13.591Z,1100
2017-01-17T14:52:27.070Z,1088
2017-01-17T14:53:40.572Z,1072
2017-01-17T14:54:54.082Z,1056
2017-01-17T14:56:07.991Z,1040
2017-01-17T14:57:22.241Z,1028
2017-01-17T14:58:35.756Z,1008
2017-01-17T14:59:49.298Z,996
2017-01-17T15:01:02.736Z,980
2017-01-17T15:02:16.311Z,960
2017-01-17T15:03:30.280Z,948
2017-01-17T15:04:43.797Z,928
2017-01-17T15:05:57.892Z,916
2017-01-17T15:07:11.414Z,896
2017-01-17T15:08:24.868Z,880
2017-01-17T15:09:38.622Z,860
2017-01-17T15:10:52.070Z,844
2017-01-17T15:12:05.547Z,824
2017-01-17T15:13:19.083Z,808
2017-01-17T15:14:32.596Z,784
2017-01-17T15:15:46.382Z,768
2017-01-17T15:16:59.929Z,748
2017-01-17T15:18:13.412Z,728
2017-01-17T15:19:26.822Z,704
2017-01-17T15:20:40.258Z,688
2017-01-17T15:21:54.072Z,672
2017-01-17T15:23:07.589Z,648
2017-01-17T15:24:21.075Z,620
2017-01-17T15:25:34.666Z,600
2017-01-17T15:26:48.231Z,580
2017-01-17T15:28:04.199Z,556
2017-01-17T15:29:17.912Z,532
2017-01-17T15:30:31.368Z,504
2017-01-17T15:31:44.789Z,484
2017-01-17T15:32:58.236Z,464
2017-01-17T15:34:12.129Z,440
2017-01-17T15:35:25.640Z,420
2017-01-17T15:36:39.078Z,396
2017-01-17T15:37:52.673Z,376
2017-01-17T15:39:06.296Z,356
2017-01-17T15:40:20.112Z,336
2017-01-17T15:41:34.128Z,312
2017-01-17T15:42:47.524Z,296
2017-01-17T15:44:01.300Z,276
2017-01-17T15:45:14.805Z,252
2017-01-17T15:46:28.801Z,236
2017-01-17T15:47:42.276Z,220
2017-01-17T15:48:55.757Z,200
2017-01-17T15:50:09.408Z,184
2017-01-17T15:51:22.998Z,168
2017-01-17T15:52:37.670Z,152
2017-01-17T15:53:51.356Z,140
2017-01-17T15:55:08.739Z,124
2017-01-17T15:56:24.459Z,108
2017-01-17T15:57:37.897Z,96
2017-01-17T15:58:51.704Z,88
2017-01-17T16:00:06.658Z,76
2017-01-17T16:01:20.154Z,68
2017-01-17T16:02:33.693Z,56
2017-01-17T16:03:47.227Z,52
2017-01-17T16:05:01.986Z,40
2017-01-17T16:06:15.515Z,36
2017-01-17T16:07:29.130Z,32
2017-01-17T16:08:43.112Z,24
2017-01-17T16:09:56.812Z,20
2017-01-17T16:11:12.276Z,20
2017-01-17T16:12:25.755Z,16
2017-01-17T16:13:39.436Z,12
2017-01-17T16:14:53.055Z,8
2017-01-17T16:16:06.603Z,8
2017-01-17T16:17:20.519Z,8
2017-01-17T16:18:34.117Z,4
2017-01-17T16:19:48.354Z,4
2017-01-17T16:21:01.960Z,4
2017-01-17T16:22:15.494Z,4
2017-01-17T16:23:29.276Z,0
2017-01-17T16:24:42.761Z,4
2017-01-17T16:25:56.359Z,4
2017-01-17T16:27:11.135Z,0
2017-01-17T16:28:24.619Z,0
2017-01-17T16:29:38.368Z,0
2017-01-17T16:30:51.889Z,0
2017-01-17T16:32:05.712Z,0
2017-01-17T16:33:19.322Z,0
2017-01-17T16:34:32.944Z,0
2017-01-17T16:35:47.180Z,0
2017-01-17T16:37:00.688Z,0
2017-01-17T16:38:15.584Z,0
2017-01-17T16:39:29.508Z,0
2017-01-17T16:40:43.021Z,0
2017-01-17T16:41:56.795Z,0
2017-01-17T16:43:11.724Z,0
2017-01-17T16:44:29.586Z,0
2017-01-17T16:45:43.261Z,0
2017-01-17T16:46:57.167Z,0
2017-01-17T16:48:12.130Z,0
2017-01-17T16:49:26.066Z,0
2017-01-17T16:50:40.622Z,0
2017-01-17T16:51:54.101Z,0
2017-01-17T16:53:07.759Z,0
2017-01-17T16:54:23.274Z,0
2017-01-17T16:55:36.945Z,0
2017-01-17T16:56:50.500Z,0
2017-01-17T16:58:04.069Z,0
2017-01-17T16:59:17.710Z,0
2017-01-17T17:00:31.512Z,0
2017-01-17T17:01:45.045Z,0
2017-01-17T17:02:58.517Z,0
2017-01-17T17:04:12.517Z,0
2017-01-17T17:05:26.051Z,0
2017-01-17T17:06:40.238Z,0
2017-01-17T17:07:53.724Z,0
2017-01-17T17:09:07.266Z,0
2017-01-17T17:10:20.728Z,0
2017-01-17T17:11:34.215Z,0
2017-01-17T17:12:48.070Z,0
2017-01-17T17:14:01.583Z,0
2017-01-17T17:15:15.144Z,0
2017-01-17T17:16:28.609Z,0
2017-01-17T17:17:42.065Z,0
2017-01-17T17:18:55.855Z,0
2017-01-17T17:20:09.467Z,0